Time;durP1;ratioP1;P1;durP2;ratioP2;P2;SDS_P1;SDS_P2;PMS_P1;PMS_P2;Temp;Humidity;BMP_temperature;BMP_pressure;BME280_temperature;BME280_humidity;BME280_pressure;Samples;Min_cycle;Max_cycle;Signal;HPM_P1;HPM_P2
2022/05/24 00:00:23;;;;;;;1.25;0.50;;;;;;;;;;4967119;28;20117;-80
2022/05/24 00:02:49;;;;;;;0.60;0.40;;;;;;;;;;4955679;28;20035;-80
2022/05/24 00:05:15;;;;;;;1.25;0.60;;;;;;;;;;4955330;28;20034;-78
2022/05/24 00:07:41;;;;;;;2.05;1.00;;;;;;;;;;4972055;28;20409;-77
2022/05/24 00:10:09;;;;;;;0.88;0.45;;;;;;;;;;4949391;28;20041;-78
2022/05/24 00:12:34;;;;;;;2.15;0.65;;;;;;;;;;4956710;28;20038;-78
2022/05/24 00:17:49;;;;;;;1.13;0.52;;;;;;;;;;4967621;28;20037;-81
2022/05/24 00:20:15;;;;;;;1.15;0.65;;;;;;;;;;4952671;28;20509;-79
2022/05/24 00:22:42;;;;;;;1.95;1.05;;;;;;;;;;4955376;28;20031;-77
2022/05/24 00:25:08;;;;;;;2.22;1.00;;;;;;;;;;4955927;28;20031;-80
2022/05/24 00:27:33;;;;;;;0.80;0.50;;;;;;;;;;4947568;28;20035;-78
2022/05/24 00:29:58;;;;;;;1.08;0.60;;;;;;;;;;4950986;28;20061;-78
2022/05/24 00:32:24;;;;;;;1.42;0.60;;;;;;;;;;4958135;28;20093;-80
2022/05/24 00:34:49;;;;;;;1.10;0.50;;;;;;;;;;4940489;28;20048;-79
2022/05/24 00:37:17;;;;;;;1.98;0.60;;;;;;;;;;4949778;28;20096;-78
2022/05/24 00:39:43;;;;;;;0.70;0.40;;;;;;;;;;4955562;28;20045;-78
2022/05/24 00:42:13;;;;;;;0.73;0.32;;;;;;;;;;4955768;28;20042;-78
2022/05/24 00:44:41;;;;;;;1.48;0.60;;;;;;;;;;4951392;28;20039;-79
2022/05/24 00:47:13;;;;;;;0.52;0.30;;;;;;;;;;4951785;28;20497;-80
2022/05/24 00:49:43;;;;;;;2.08;0.68;;;;;;;;;;4967006;28;20450;-80
2022/05/24 00:52:19;;;;;;;1.05;0.52;;;;;;;;;;4970878;28;20049;-78
2022/05/24 00:54:44;;;;;;;1.35;0.68;;;;;;;;;;4955811;28;20037;-79
2022/05/24 00:57:17;;;;;;;2.42;0.70;;;;;;;;;;4954850;28;20097;-78
2022/05/24 00:59:51;;;;;;;1.25;0.50;;;;;;;;;;4966042;28;20027;-79
2022/05/24 01:02:16;;;;;;;1.17;0.73;;;;;;;;;;4946821;28;20034;-78
2022/05/24 01:04:42;;;;;;;0.75;0.40;;;;;;;;;;4955907;28;20049;-78
2022/05/24 01:07:07;;;;;;;1.15;0.45;;;;;;;;;;4944148;28;20061;-79
2022/05/24 01:09:41;;;;;;;0.90;0.50;;;;;;;;;;4954003;28;20042;-78
2022/05/24 01:12:21;;;;;;;0.95;0.50;;;;;;;;;;4966271;28;20592;-79
2022/05/24 01:14:46;;;;;;;1.63;0.60;;;;;;;;;;4954345;28;20403;-79
2022/05/24 01:17:12;;;;;;;1.15;0.50;;;;;;;;;;4953722;28;20041;-79
2022/05/24 01:19:41;;;;;;;0.82;0.50;;;;;;;;;;4963501;28;20046;-78
2022/05/24 01:22:36;;;;;;;1.42;0.70;;;;;;;;;;4954879;28;20033;-77
2022/05/24 01:25:08;;;;;;;0.90;0.40;;;;;;;;;;4966129;28;20037;-78
2022/05/24 01:27:35;;;;;;;1.38;0.60;;;;;;;;;;4962969;28;20042;-79
2022/05/24 01:30:01;;;;;;;0.85;0.50;;;;;;;;;;4963781;28;20035;-78
2022/05/24 01:37:55;;;;;;;2.38;0.95;;;;;;;;;;4970949;28;20161;-78
2022/05/24 01:40:20;;;;;;;0.82;0.47;;;;;;;;;;4958389;28;20037;-78
2022/05/24 01:42:46;;;;;;;0.73;0.50;;;;;;;;;;4967078;28;20030;-79
2022/05/24 01:45:16;;;;;;;0.77;0.30;;;;;;;;;;4950185;28;20031;-79
2022/05/24 01:47:43;;;;;;;1.40;0.82;;;;;;;;;;4951079;28;20035;-79
2022/05/24 01:50:12;;;;;;;1.10;0.50;;;;;;;;;;4940820;28;20053;-79
2022/05/24 01:52:48;;;;;;;1.00;0.50;;;;;;;;;;4956591;28;20057;-79
2022/05/24 01:55:25;;;;;;;0.88;0.40;;;;;;;;;;4948261;28;20489;-78
2022/05/24 01:57:53;;;;;;;1.27;0.57;;;;;;;;;;4966241;28;20122;-79
2022/05/24 02:00:18;;;;;;;;;;;;;;;;;;4981139;28;20061;-78
2022/05/24 02:02:44;;;;;;;1.27;0.60;;;;;;;;;;4958178;28;19917;-80
2022/05/24 02:05:10;;;;;;;1.27;0.68;;;;;;;;;;4959971;28;20046;-79
2022/05/24 02:07:35;;;;;;;0.90;0.40;;;;;;;;;;4968612;28;20517;-78
2022/05/24 02:10:01;;;;;;;1.95;0.93;;;;;;;;;;4956981;28;20460;-78
2022/05/24 02:12:35;;;;;;;0.82;0.40;;;;;;;;;;4954334;28;20043;-79
2022/05/24 02:15:08;;;;;;;1.55;0.60;;;;;;;;;;4961443;28;20134;-79
2022/05/24 02:17:44;;;;;;;0.80;0.45;;;;;;;;;;4967306;28;20038;-79
2022/05/24 02:20:13;;;;;;;0.88;0.45;;;;;;;;;;4967703;28;20581;-79
2022/05/24 02:22:39;;;;;;;1.00;0.40;;;;;;;;;;4947848;28;20042;-77
2022/05/24 02:25:12;;;;;;;1.00;0.50;;;;;;;;;;4955061;28;20131;-80
2022/05/24 02:27:40;;;;;;;0.68;0.32;;;;;;;;;;4966433;28;20085;-79
2022/05/24 02:30:06;;;;;;;;;;;;;;;;;;4950382;28;20034;-80
2022/05/24 02:32:31;;;;;;;1.30;0.70;;;;;;;;;;4957522;28;20000;-79
2022/05/24 02:34:56;;;;;;;1.02;0.50;;;;;;;;;;4966043;28;20035;-78
2022/05/24 02:37:22;;;;;;;1.17;0.60;;;;;;;;;;4969312;28;20042;-79
2022/05/24 02:42:31;;;;;;;0.82;0.43;;;;;;;;;;4970381;28;20049;-80
2022/05/24 02:44:57;;;;;;;1.67;0.70;;;;;;;;;;4951583;28;20038;-79
2022/05/24 02:47:22;;;;;;;1.58;0.80;;;;;;;;;;4954685;28;20038;-80
2022/05/24 02:49:48;;;;;;;1.08;0.50;;;;;;;;;;4968542;28;20042;-78
2022/05/24 02:52:15;;;;;;;1.20;0.50;;;;;;;;;;4956566;28;20118;-81
2022/05/24 02:54:41;;;;;;;1.20;0.60;;;;;;;;;;4956792;28;20409;-80
2022/05/24 02:57:06;;;;;;;1.50;0.68;;;;;;;;;;4972584;28;20026;-78
2022/05/24 02:59:33;;;;;;;1.15;0.57;;;;;;;;;;4957296;28;20051;-79
2022/05/24 03:01:58;;;;;;;1.25;0.60;;;;;;;;;;4968909;28;20043;-78
2022/05/24 03:04:23;;;;;;;0.98;0.57;;;;;;;;;;4953848;28;20034;-79
2022/05/24 03:09:35;;;;;;;1.30;0.65;;;;;;;;;;4971560;28;20100;-78
2022/05/24 03:14:53;;;;;;;1.52;0.75;;;;;;;;;;4972187;28;20046;-82
2022/05/24 03:17:19;;;;;;;1.27;0.68;;;;;;;;;;4957119;28;20035;-82
2022/05/24 03:19:45;;;;;;;1.63;0.70;;;;;;;;;;4971719;28;20111;-83
2022/05/24 03:22:11;;;;;;;1.80;1.00;;;;;;;;;;4969433;28;20039;-83
2022/05/24 03:24:36;;;;;;;2.38;0.70;;;;;;;;;;4957091;28;20097;-84
2022/05/24 03:27:11;;;;;;;1.67;0.80;;;;;;;;;;4956624;28;20046;-84
2022/05/24 03:29:38;;;;;;;0.95;0.60;;;;;;;;;;4956067;28;20038;-84
2022/05/24 03:32:03;;;;;;;1.13;0.50;;;;;;;;;;4956898;28;20054;-81
2022/05/24 03:34:29;;;;;;;1.52;0.70;;;;;;;;;;4953734;28;20047;-83
2022/05/24 03:36:54;;;;;;;1.95;0.73;;;;;;;;;;4965409;28;20034;-83
2022/05/24 03:39:19;;;;;;;1.60;0.60;;;;;;;;;;4956327;28;20889;-84
2022/05/24 03:41:46;;;;;;;1.98;0.70;;;;;;;;;;4966860;28;20113;-84
2022/05/24 03:44:11;;;;;;;0.95;0.55;;;;;;;;;;4951366;28;20042;-85
2022/05/24 03:46:37;;;;;;;1.48;0.82;;;;;;;;;;4951492;28;20046;-85
2022/05/24 03:49:03;;;;;;;0.68;0.40;;;;;;;;;;4954713;28;20026;-86
2022/05/24 03:51:29;;;;;;;0.85;0.50;;;;;;;;;;4970139;28;20409;-87
2022/05/24 03:53:54;;;;;;;2.20;0.90;;;;;;;;;;4955965;28;20047;-86
2022/05/24 03:56:19;;;;;;;2.42;0.93;;;;;;;;;;4967351;28;20031;-87
2022/05/24 03:58:45;;;;;;;1.17;0.60;;;;;;;;;;4951501;28;20038;-86
2022/05/24 04:01:10;;;;;;;1.35;0.70;;;;;;;;;;4966177;28;20035;-86
2022/05/24 04:03:36;;;;;;;1.80;0.90;;;;;;;;;;4968186;28;20356;-86
2022/05/24 04:06:01;;;;;;;1.52;0.70;;;;;;;;;;4953592;28;20045;-85
2022/05/24 04:08:29;;;;;;;1.65;0.80;;;;;;;;;;4966967;28;20037;-85
2022/05/24 04:11:09;;;;;;;2.08;0.98;;;;;;;;;;4952674;28;20045;-83
2022/05/24 04:13:37;;;;;;;1.65;0.88;;;;;;;;;;4972240;28;20556;-83
2022/05/24 04:16:05;;;;;;;;;;;;;;;;;;4969753;28;20030;-85
2022/05/24 04:18:31;;;;;;;5.50;0.88;;;;;;;;;;4954818;28;19917;-84
2022/05/24 04:20:56;;;;;;;1.98;1.00;;;;;;;;;;4954715;28;20054;-84
2022/05/24 04:23:23;;;;;;;2.10;0.98;;;;;;;;;;4955550;28;20038;-84
2022/05/24 04:25:49;;;;;;;1.40;0.80;;;;;;;;;;4967175;28;20034;-85
2022/05/24 04:28:18;;;;;;;2.15;0.90;;;;;;;;;;4954359;28;20038;-86
2022/05/24 04:30:44;;;;;;;1.20;0.70;;;;;;;;;;4955203;28;20034;-83
2022/05/24 04:33:10;;;;;;;1.95;1.02;;;;;;;;;;4954586;28;20122;-79
2022/05/24 04:35:35;;;;;;;3.70;1.20;;;;;;;;;;4954559;28;20043;-79
2022/05/24 04:38:00;;;;;;;1.80;0.70;;;;;;;;;;4951864;28;20428;-79
2022/05/24 04:43:10;;;;;;;2.30;1.08;;;;;;;;;;4969172;28;20101;-78
2022/05/24 04:45:35;;;;;;;1.40;0.75;;;;;;;;;;4946387;28;20461;-79
2022/05/24 04:48:01;;;;;;;2.33;1.05;;;;;;;;;;4947614;28;20667;-79
2022/05/24 04:50:27;;;;;;;1.95;1.10;;;;;;;;;;4947220;28;20057;-79
2022/05/24 04:52:52;;;;;;;2.22;1.42;;;;;;;;;;4955161;28;20124;-78
2022/05/24 04:55:18;;;;;;;2.50;1.15;;;;;;;;;;4955416;28;20473;-79
2022/05/24 04:57:44;;;;;;;2.03;1.08;;;;;;;;;;4967089;28;20047;-81
2022/05/24 05:00:14;;;;;;;1.85;0.90;;;;;;;;;;4956880;28;20084;-84
2022/05/24 05:02:41;;;;;;;1.67;0.88;;;;;;;;;;4954036;28;20058;-87
2022/05/24 05:05:09;;;;;;;1.83;0.90;;;;;;;;;;4942041;28;20537;-88
2022/05/24 05:07:35;;;;;;;2.15;1.23;;;;;;;;;;4944245;28;20454;-87
2022/05/24 05:10:00;;;;;;;1.85;1.00;;;;;;;;;;4933253;28;20037;-90
2022/05/24 05:12:26;;;;;;;2.92;1.45;;;;;;;;;;4932399;28;20040;-87
2022/05/24 05:14:52;;;;;;;1.45;0.82;;;;;;;;;;4944358;28;20094;-87
2022/05/24 05:17:18;;;;;;;1.77;1.02;;;;;;;;;;4945032;28;20098;-83
2022/05/24 05:19:44;;;;;;;2.60;1.52;;;;;;;;;;4931689;28;20050;-80
2022/05/24 05:22:09;;;;;;;2.10;1.20;;;;;;;;;;4933740;28;20065;-83
2022/05/24 05:24:35;;;;;;;1.48;0.90;;;;;;;;;;4944870;28;20594;-84
2022/05/24 05:27:02;;;;;;;1.70;0.90;;;;;;;;;;4926462;28;20026;-84
2022/05/24 05:32:17;;;;;;;1.92;1.00;;;;;;;;;;4942385;28;20115;-85
2022/05/24 05:34:42;;;;;;;2.10;1.15;;;;;;;;;;4926367;28;20066;-85
2022/05/24 05:37:08;;;;;;;1.88;1.05;;;;;;;;;;4933763;28;20660;-84
2022/05/24 05:39:35;;;;;;;2.53;1.27;;;;;;;;;;4946101;28;20039;-85
2022/05/24 05:42:01;;;;;;;1.60;0.97;;;;;;;;;;4933415;28;20495;-82
2022/05/24 05:44:27;;;;;;;2.17;0.88;;;;;;;;;;4930299;28;20286;-85
2022/05/24 05:46:53;;;;;;;2.25;1.02;;;;;;;;;;4932264;28;20086;-84
2022/05/24 05:49:18;;;;;;;2.67;1.27;;;;;;;;;;4932797;28;20038;-85
2022/05/24 05:51:43;;;;;;;1.75;0.93;;;;;;;;;;4928081;28;20042;-81
2022/05/24 05:54:09;;;;;;;1.85;0.90;;;;;;;;;;4928355;28;20136;-82
2022/05/24 05:56:34;;;;;;;3.08;1.08;;;;;;;;;;4930795;28;20036;-85
2022/05/24 05:58:59;;;;;;;1.63;0.95;;;;;;;;;;4937409;28;20054;-82
2022/05/24 06:01:31;;;;;;;1.80;0.98;;;;;;;;;;4929582;28;20720;-82
2022/05/24 06:03:57;;;;;;;1.73;1.05;;;;;;;;;;4931161;28;20050;-84
2022/05/24 06:06:24;;;;;;;1.77;1.00;;;;;;;;;;4928353;28;20522;-83
2022/05/24 06:08:50;;;;;;;1.67;0.90;;;;;;;;;;4927091;28;20035;-84
2022/05/24 06:11:15;;;;;;;2.05;1.27;;;;;;;;;;4923377;28;20058;-81
2022/05/24 06:13:41;;;;;;;2.17;1.00;;;;;;;;;;4932512;28;20047;-83
2022/05/24 06:16:08;;;;;;;2.50;1.10;;;;;;;;;;4932788;28;20585;-84
2022/05/24 06:18:33;;;;;;;1.43;0.70;;;;;;;;;;4932303;28;20497;-83
2022/05/24 06:21:00;;;;;;;2.42;1.05;;;;;;;;;;4933279;28;20038;-83
2022/05/24 06:23:25;;;;;;;2.85;1.15;;;;;;;;;;4942567;28;20040;-83
2022/05/24 06:25:51;;;;;;;1.88;0.95;;;;;;;;;;4932105;28;20053;-83
2022/05/24 06:28:17;;;;;;;1.75;0.80;;;;;;;;;;4943753;28;20051;-83
2022/05/24 06:30:42;;;;;;;1.17;0.63;;;;;;;;;;4925065;28;20062;-82
2022/05/24 06:33:08;;;;;;;1.48;0.85;;;;;;;;;;4942769;28;20058;-82
2022/05/24 06:35:35;;;;;;;1.88;1.02;;;;;;;;;;4928128;28;20042;-83
2022/05/24 06:38:00;;;;;;;1.83;0.95;;;;;;;;;;4938681;28;20035;-82
2022/05/24 06:40:25;;;;;;;1.92;0.95;;;;;;;;;;4927692;28;20518;-82
2022/05/24 06:42:51;;;;;;;1.88;0.90;;;;;;;;;;4926714;28;20039;-82
2022/05/24 06:45:17;;;;;;;2.03;0.88;;;;;;;;;;4956652;28;20040;-83
2022/05/24 06:47:43;;;;;;;2.08;1.00;;;;;;;;;;4923781;28;20511;-84
2022/05/24 06:50:10;;;;;;;2.03;1.05;;;;;;;;;;4949022;28;20034;-83
2022/05/24 06:52:36;;;;;;;1.33;0.87;;;;;;;;;;4942042;28;20036;-83
2022/05/24 06:55:03;;;;;;;1.48;0.70;;;;;;;;;;4934792;28;20059;-82
2022/05/24 06:57:28;;;;;;;1.70;0.73;;;;;;;;;;4929269;28;20035;-83
2022/05/24 07:02:37;;;;;;;1.48;0.63;;;;;;;;;;4947712;28;20522;-82
2022/05/24 07:05:06;;;;;;;1.55;0.75;;;;;;;;;;4933963;28;20043;-82
2022/05/24 07:07:36;;;;;;;1.50;0.70;;;;;;;;;;4945131;28;20047;-83
2022/05/24 07:10:03;;;;;;;1.42;0.70;;;;;;;;;;4951563;28;20163;-82
2022/05/24 07:12:28;;;;;;;1.15;0.52;;;;;;;;;;4933910;28;20590;-80
2022/05/24 07:14:54;;;;;;;2.92;1.17;;;;;;;;;;4945202;28;20035;-83
2022/05/24 07:17:20;;;;;;;1.60;0.60;;;;;;;;;;4941009;28;20090;-83
2022/05/24 07:19:46;;;;;;;1.10;0.50;;;;;;;;;;4935045;28;20042;-83
2022/05/24 07:22:12;;;;;;;0.88;0.50;;;;;;;;;;4958864;28;20113;-83
2022/05/24 07:24:38;;;;;;;0.77;0.43;;;;;;;;;;4937076;28;20054;-83
2022/05/24 07:27:07;;;;;;;1.85;0.88;;;;;;;;;;4929393;28;20031;-82
2022/05/24 07:29:35;;;;;;;1.75;0.90;;;;;;;;;;4934574;28;20050;-83
2022/05/24 07:32:01;;;;;;;1.42;0.68;;;;;;;;;;4935190;28;20039;-82
2022/05/24 07:34:26;;;;;;;1.05;0.47;;;;;;;;;;4933953;28;20043;-83
2022/05/24 07:36:52;;;;;;;1.70;0.82;;;;;;;;;;4934680;28;20501;-84
2022/05/24 07:39:18;;;;;;;0.95;0.50;;;;;;;;;;4934011;28;20086;-83
2022/05/24 07:47:11;;;;;;;0.82;0.40;;;;;;;;;;4945924;28;20103;-84
2022/05/24 07:49:37;;;;;;;1.75;0.82;;;;;;;;;;4933823;28;20569;-83
2022/05/24 07:52:04;;;;;;;1.40;0.52;;;;;;;;;;4934229;28;20040;-83
2022/05/24 07:54:29;;;;;;;1.90;0.70;;;;;;;;;;4949100;28;20706;-82
2022/05/24 07:56:55;;;;;;;0.88;0.43;;;;;;;;;;4932750;28;20035;-85
2022/05/24 07:59:20;;;;;;;1.40;0.60;;;;;;;;;;4932290;28;20162;-83
2022/05/24 08:01:45;;;;;;;1.95;1.00;;;;;;;;;;4951221;28;20459;-84
2022/05/24 08:04:10;;;;;;;2.80;1.15;;;;;;;;;;4932901;28;22552;-84
2022/05/24 08:06:39;;;;;;;1.35;0.60;;;;;;;;;;4934876;28;20048;-84
2022/05/24 08:09:04;;;;;;;1.75;0.80;;;;;;;;;;4945711;28;20495;-85
2022/05/24 08:11:30;;;;;;;1.10;0.60;;;;;;;;;;4934829;28;20056;-84
2022/05/24 08:14:02;;;;;;;1.63;0.70;;;;;;;;;;4935103;28;20054;-85
2022/05/24 08:16:29;;;;;;;1.48;0.50;;;;;;;;;;4929521;28;20403;-84
2022/05/24 08:18:54;;;;;;;1.50;0.77;;;;;;;;;;4927508;28;20035;-82
2022/05/24 08:21:20;;;;;;;2.10;0.85;;;;;;;;;;4934767;28;20031;-82
2022/05/24 08:23:45;;;;;;;0.80;0.40;;;;;;;;;;4937172;28;20045;-81
2022/05/24 08:26:12;;;;;;;0.77;0.38;;;;;;;;;;4934492;28;21059;-84
2022/05/24 08:28:38;;;;;;;1.00;0.43;;;;;;;;;;4943744;28;20040;-85
2022/05/24 08:31:03;;;;;;;0.77;0.40;;;;;;;;;;4931332;28;20038;-83
2022/05/24 08:33:28;;;;;;;0.52;0.22;;;;;;;;;;4935178;28;20142;-82
2022/05/24 08:35:54;;;;;;;0.60;0.50;;;;;;;;;;4940436;28;20043;-84
2022/05/24 08:38:21;;;;;;;0.65;0.30;;;;;;;;;;4931381;28;20034;-84
2022/05/24 08:40:48;;;;;;;0.75;0.45;;;;;;;;;;4933416;28;20152;-84
2022/05/24 08:43:37;;;;;;;0.47;0.32;;;;;;;;;;4935139;28;20036;-83
2022/05/24 08:49:07;;;;;;;0.30;0.20;;;;;;;;;;4948797;28;20046;-83
2022/05/24 08:51:41;;;;;;;0.63;0.30;;;;;;;;;;4933670;28;20069;-85
2022/05/24 08:54:12;;;;;;;0.88;0.30;;;;;;;;;;4949296;28;20579;-83
2022/05/24 08:56:55;;;;;;;1.08;0.43;;;;;;;;;;4928630;28;20514;-82
2022/05/24 08:59:20;;;;;;;0.88;0.38;;;;;;;;;;4931359;28;20526;-83
2022/05/24 09:01:46;;;;;;;0.85;0.30;;;;;;;;;;4941044;28;20038;-85
2022/05/24 09:04:12;;;;;;;0.57;0.30;;;;;;;;;;4931842;28;20117;-84
2022/05/24 09:06:58;;;;;;;2.55;0.32;;;;;;;;;;4943026;28;20106;-86
2022/05/24 09:09:46;;;;;;;0.80;0.40;;;;;;;;;;4933507;28;20045;-83
2022/05/24 09:12:32;;;;;;;0.40;0.20;;;;;;;;;;4931971;28;20039;-81
2022/05/24 09:20:44;;;;;;;0.30;0.10;;;;;;;;;;5025770;28;20094;-84
2022/05/24 09:23:12;;;;;;;;;;;;;;;;;;4997716;28;20099;-85
2022/05/24 09:25:51;;;;;;;0.32;0.20;;;;;;;;;;5011552;28;19920;-83
2022/05/24 09:28:16;;;;;;;0.25;0.10;;;;;;;;;;5023606;28;20038;-86
2022/05/24 09:30:42;;;;;;;0.68;0.30;;;;;;;;;;4993280;28;20488;-83
2022/05/24 09:33:22;;;;;;;0.85;0.10;;;;;;;;;;5006306;28;20026;-84
2022/05/24 09:35:50;;;;;;;0.60;0.20;;;;;;;;;;5020466;28;20041;-82
2022/05/24 09:38:17;;;;;;;1.08;0.30;;;;;;;;;;4987518;28;20034;-84
2022/05/24 09:40:55;;;;;;;0.35;0.15;;;;;;;;;;5002145;28;20037;-81
2022/05/24 09:43:35;;;;;;;0.30;0.10;;;;;;;;;;5008340;28;20035;-85
2022/05/24 09:46:11;;;;;;;0.20;0.13;;;;;;;;;;5011016;28;20384;-84
2022/05/24 09:48:52;;;;;;;0.32;0.08;;;;;;;;;;5006574;28;20040;-84
2022/05/24 09:51:24;;;;;;;0.20;0.00;;;;;;;;;;5015667;28;20477;-82
2022/05/24 09:53:52;;;;;;;0.20;0.10;;;;;;;;;;5002914;28;20033;-85
2022/05/24 09:56:23;;;;;;;0.35;0.10;;;;;;;;;;5010960;28;20094;-86
2022/05/24 09:58:51;;;;;;;0.30;0.10;;;;;;;;;;5031417;28;20187;-84
2022/05/24 10:01:35;;;;;;;0.00;0.00;;;;;;;;;;5010645;28;20373;-83
2022/05/24 10:04:25;;;;;;;0.20;0.08;;;;;;;;;;5004907;28;20044;-83
2022/05/24 10:07:07;;;;;;;0.22;0.10;;;;;;;;;;5023225;28;20032;-84
2022/05/24 10:09:38;;;;;;;0.40;0.08;;;;;;;;;;5024415;28;20120;-84
2022/05/24 10:12:13;;;;;;;0.35;0.10;;;;;;;;;;4994316;28;20030;-84
2022/05/24 10:14:59;;;;;;;0.08;0.03;;;;;;;;;;5018613;28;20040;-85
2022/05/24 10:17:40;;;;;;;0.15;0.10;;;;;;;;;;5008996;28;20504;-83
2022/05/24 10:20:16;;;;;;;0.65;0.15;;;;;;;;;;5007073;28;20045;-91
2022/05/24 10:22:44;;;;;;;0.08;0.08;;;;;;;;;;5025037;28;20040;-84
2022/05/24 10:25:26;;;;;;;0.82;0.22;;;;;;;;;;5025773;28;20045;-83
2022/05/24 10:28:04;;;;;;;0.13;0.08;;;;;;;;;;4995898;28;20367;-84
2022/05/24 10:30:38;;;;;;;0.20;0.10;;;;;;;;;;4995298;28;20044;-84
2022/05/24 10:39:16;;;;;;;0.20;0.10;;;;;;;;;;5012581;28;20068;-85
2022/05/24 10:42:02;;;;;;;0.47;0.10;;;;;;;;;;5011725;28;20034;-82
2022/05/24 10:44:39;;;;;;;;;;;;;;;;;;5011771;28;20393;-83
2022/05/24 10:47:27;;;;;;;0.68;0.20;;;;;;;;;;5005960;28;19913;-84
2022/05/24 10:50:01;;;;;;;0.10;0.08;;;;;;;;;;4970876;28;20113;-84
2022/05/24 10:52:50;;;;;;;0.10;0.00;;;;;;;;;;4995153;28;20044;-86
2022/05/24 10:55:21;;;;;;;0.47;0.20;;;;;;;;;;4990709;28;20500;-82
2022/05/24 10:58:00;;;;;;;0.20;0.10;;;;;;;;;;4994642;28;20045;-83
2022/05/24 11:00:36;;;;;;;0.45;0.17;;;;;;;;;;5009603;28;20025;-83
2022/05/24 11:03:15;;;;;;;0.15;0.10;;;;;;;;;;4995833;28;20033;-83
2022/05/24 11:05:50;;;;;;;1.00;0.35;;;;;;;;;;4993314;28;20358;-83
2022/05/24 11:08:43;;;;;;;0.30;0.10;;;;;;;;;;5006028;28;20061;-82
2022/05/24 11:11:30;;;;;;;0.60;0.20;;;;;;;;;;5008980;28;20041;-84
2022/05/24 11:14:21;;;;;;;0.20;0.10;;;;;;;;;;5021853;28;20564;-83
2022/05/24 11:16:48;;;;;;;0.73;0.30;;;;;;;;;;5001658;28;20042;-83
2022/05/24 11:19:14;;;;;;;;;;;;;;;;;;5008033;28;20662;-84
2022/05/24 11:21:47;;;;;;;0.30;0.10;;;;;;;;;;4997040;28;19928;-84
2022/05/24 11:24:35;;;;;;;0.20;0.10;;;;;;;;;;4989689;28;20041;-83
2022/05/24 11:27:02;;;;;;;1.35;0.38;;;;;;;;;;4992327;28;20038;-84
2022/05/24 11:29:33;;;;;;;0.28;0.08;;;;;;;;;;4970902;28;20072;-83
2022/05/24 11:32:02;;;;;;;0.55;0.20;;;;;;;;;;4984664;28;20489;-84
2022/05/24 11:34:31;;;;;;;0.32;0.20;;;;;;;;;;5003874;28;20108;-83
2022/05/24 11:37:27;;;;;;;0.88;0.38;;;;;;;;;;5006489;28;20030;-83
2022/05/24 11:39:53;;;;;;;1.13;0.43;;;;;;;;;;4965891;28;20545;-83
2022/05/24 11:42:21;;;;;;;0.75;0.28;;;;;;;;;;4990093;28;20121;-83
2022/05/24 11:44:48;;;;;;;0.45;0.10;;;;;;;;;;5002876;28;20124;-83
2022/05/24 11:47:34;;;;;;;0.47;0.20;;;;;;;;;;5000081;28;20073;-82
2022/05/24 11:50:04;;;;;;;1.05;0.50;;;;;;;;;;4998292;28;20056;-83
2022/05/24 11:53:17;;;;;;;0.95;0.32;;;;;;;;;;5005848;28;20037;-83
2022/05/24 11:55:47;;;;;;;0.32;0.10;;;;;;;;;;4965931;28;20546;-83
2022/05/24 11:58:21;;;;;;;0.20;0.10;;;;;;;;;;4995354;28;20056;-84
2022/05/24 12:01:13;;;;;;;0.75;0.30;;;;;;;;;;4994898;28;20060;-84
2022/05/24 12:09:55;;;;;;;0.60;0.20;;;;;;;;;;4985761;28;20517;-83
2022/05/24 12:12:30;;;;;;;0.43;0.20;;;;;;;;;;5006357;28;20068;-83
2022/05/24 12:15:15;;;;;;;1.02;0.30;;;;;;;;;;4966904;28;20051;-84
2022/05/24 12:17:42;;;;;;;1.58;0.30;;;;;;;;;;4980448;28;20109;-83
2022/05/24 12:20:33;;;;;;;0.50;0.20;;;;;;;;;;4964365;28;20493;-84
2022/05/24 12:23:08;;;;;;;1.08;0.40;;;;;;;;;;4974743;28;20042;-84
2022/05/24 12:26:01;;;;;;;0.30;0.20;;;;;;;;;;4989151;28;20076;-83
2022/05/24 12:28:33;;;;;;;0.63;0.22;;;;;;;;;;4976479;28;20033;-83
2022/05/24 12:30:59;;;;;;;0.90;0.30;;;;;;;;;;4998793;28;20041;-83
2022/05/24 12:33:24;;;;;;;1.60;0.65;;;;;;;;;;4989512;28;20041;-84
2022/05/24 12:36:11;;;;;;;3.83;0.83;;;;;;;;;;5006063;28;20037;-84
2022/05/24 12:38:37;;;;;;;0.63;0.30;;;;;;;;;;4963883;28;20290;-83
2022/05/24 12:41:18;;;;;;;0.77;0.40;;;;;;;;;;4970135;28;20070;-84
2022/05/24 12:43:55;;;;;;;0.90;0.40;;;;;;;;;;4985523;28;21078;-84
2022/05/24 12:46:21;;;;;;;1.05;0.50;;;;;;;;;;5008492;28;20061;-82
2022/05/24 12:48:48;;;;;;;0.82;0.32;;;;;;;;;;5006739;28;20157;-85
2022/05/24 12:51:18;;;;;;;0.43;0.30;;;;;;;;;;5006617;28;20040;-85
2022/05/24 12:53:43;;;;;;;1.27;0.40;;;;;;;;;;4986442;28;20040;-83
2022/05/24 12:56:16;;;;;;;0.43;0.20;;;;;;;;;;4988543;28;20048;-84
2022/05/24 12:58:44;;;;;;;0.70;0.30;;;;;;;;;;4990579;28;20490;-81
2022/05/24 13:01:21;;;;;;;1.33;0.43;;;;;;;;;;4987296;28;20048;-85
2022/05/24 13:04:08;;;;;;;0.80;0.50;;;;;;;;;;5002869;28;20089;-83
2022/05/24 13:06:36;;;;;;;0.85;0.35;;;;;;;;;;4990054;28;20038;-84
2022/05/24 13:09:27;;;;;;;;;;;;;;;;;;5000447;28;20515;-85
2022/05/24 13:12:03;;;;;;;1.08;0.40;;;;;;;;;;4997627;28;20626;-86
2022/05/24 13:14:56;;;;;;;0.70;0.30;;;;;;;;;;4984684;28;20413;-84
2022/05/24 13:17:22;;;;;;;1.05;0.47;;;;;;;;;;4991357;28;20068;-84
2022/05/24 13:19:51;;;;;;;0.63;0.30;;;;;;;;;;4987988;28;20044;-85
2022/05/24 13:22:17;;;;;;;0.90;0.40;;;;;;;;;;4999786;28;20041;-85
2022/05/24 13:24:51;;;;;;;1.30;0.40;;;;;;;;;;5002726;28;20092;-85
2022/05/24 13:27:16;;;;;;;0.80;0.30;;;;;;;;;;4981517;28;20497;-89
2022/05/24 13:35:09;;;;;;;0.40;0.30;;;;;;;;;;4993444;28;20169;-90
2022/05/24 13:37:50;;;;;;;0.77;0.32;;;;;;;;;;4980824;28;20120;-88
2022/05/24 13:40:16;;;;;;;0.55;0.20;;;;;;;;;;4985042;28;20057;-90
2022/05/24 13:42:56;;;;;;;1.05;0.35;;;;;;;;;;4990169;28;20033;-87
2022/05/24 13:45:29;;;;;;;0.65;0.35;;;;;;;;;;4987894;28;20031;-87
2022/05/24 13:48:00;;;;;;;0.40;0.20;;;;;;;;;;4982068;28;20614;-90
2022/05/24 13:50:40;;;;;;;0.47;0.20;;;;;;;;;;4988134;28;20596;-89
2022/05/24 13:53:26;;;;;;;1.38;0.40;;;;;;;;;;5006311;28;20153;-89
2022/05/24 13:56:04;;;;;;;1.30;0.52;;;;;;;;;;4989843;28;20572;-88
2022/05/24 13:58:41;;;;;;;1.08;0.40;;;;;;;;;;5018297;28;20549;-89
2022/05/24 14:01:27;;;;;;;1.08;0.40;;;;;;;;;;4995235;28;20034;-87
2022/05/24 14:03:55;;;;;;;1.30;0.57;;;;;;;;;;4988570;28;20033;-86
2022/05/24 14:06:22;;;;;;;0.88;0.40;;;;;;;;;;5006582;28;20678;-84
2022/05/24 14:08:52;;;;;;;1.15;0.50;;;;;;;;;;4989394;28;20046;-84
2022/05/24 14:11:28;;;;;;;1.15;0.50;;;;;;;;;;5002459;28;20029;-85
2022/05/24 14:13:53;;;;;;;0.85;0.30;;;;;;;;;;5002142;28;20826;-83
2022/05/24 14:16:20;;;;;;;1.05;0.40;;;;;;;;;;4992211;28;20050;-89
2022/05/24 14:18:45;;;;;;;1.02;0.50;;;;;;;;;;4995755;28;20038;-86
2022/05/24 14:21:12;;;;;;;1.13;0.50;;;;;;;;;;4986674;28;20041;-84
2022/05/24 14:23:38;;;;;;;0.80;0.30;;;;;;;;;;5001938;28;20045;-84
2022/05/24 14:26:04;;;;;;;0.63;0.30;;;;;;;;;;4991902;28;20738;-86
2022/05/24 14:28:29;;;;;;;0.75;0.30;;;;;;;;;;5006961;28;20406;-81
2022/05/24 14:30:55;;;;;;;0.55;0.28;;;;;;;;;;4991927;28;20037;-83
2022/05/24 14:33:22;;;;;;;0.20;0.17;;;;;;;;;;5005382;28;20042;-82
2022/05/24 14:35:48;;;;;;;0.60;0.30;;;;;;;;;;4997767;28;20065;-80
2022/05/24 14:38:13;;;;;;;0.90;0.60;;;;;;;;;;4984632;28;20327;-84
2022/05/24 14:40:39;;;;;;;0.35;0.20;;;;;;;;;;4988699;28;20036;-83
2022/05/24 14:43:07;;;;;;;0.52;0.20;;;;;;;;;;4985134;28;20037;-84
2022/05/24 14:45:32;;;;;;;0.45;0.20;;;;;;;;;;5010210;28;21059;-86
2022/05/24 14:47:58;;;;;;;0.65;0.30;;;;;;;;;;4985346;28;20148;-85
2022/05/24 14:50:23;;;;;;;0.20;0.10;;;;;;;;;;4983235;28;20485;-87
2022/05/24 14:52:48;;;;;;;0.50;0.10;;;;;;;;;;4992457;28;20061;-85
2022/05/24 14:55:23;;;;;;;0.30;0.20;;;;;;;;;;5000497;28;20037;-84
2022/05/24 14:57:48;;;;;;;0.80;0.30;;;;;;;;;;5003771;28;20030;-84
2022/05/24 15:00:15;;;;;;;0.32;0.20;;;;;;;;;;4993023;28;20052;-85
2022/05/24 15:02:40;;;;;;;0.85;0.20;;;;;;;;;;4994979;28;20069;-84
2022/05/24 15:05:08;;;;;;;0.45;0.28;;;;;;;;;;4986961;28;20037;-84
2022/05/24 15:15:45;;;;;;;0.45;0.10;;;;;;;;;;5013127;28;20168;-83
2022/05/24 15:18:11;;;;;;;0.25;0.10;;;;;;;;;;4997525;28;20124;-84
2022/05/24 15:20:39;;;;;;;0.52;0.20;;;;;;;;;;4987959;28;20033;-84
2022/05/24 15:23:10;;;;;;;0.10;0.10;;;;;;;;;;5009431;28;20120;-83
2022/05/24 15:25:43;;;;;;;3.97;0.73;;;;;;;;;;4997320;28;20132;-83
2022/05/24 15:28:11;;;;;;;0.50;0.20;;;;;;;;;;5012397;28;20033;-86
2022/05/24 15:30:37;;;;;;;0.20;0.10;;;;;;;;;;4996454;28;20039;-83
2022/05/24 15:33:02;;;;;;;0.60;0.20;;;;;;;;;;4986409;28;20030;-84
2022/05/24 15:35:30;;;;;;;0.30;0.20;;;;;;;;;;4982037;28;20064;-84
2022/05/24 15:37:57;;;;;;;0.68;0.30;;;;;;;;;;5006577;28;20036;-82
2022/05/24 15:40:22;;;;;;;0.57;0.20;;;;;;;;;;4990153;28;20404;-83
2022/05/24 15:42:48;;;;;;;0.70;0.30;;;;;;;;;;4990230;28;20034;-84
2022/05/24 15:45:13;;;;;;;1.08;0.52;;;;;;;;;;5006642;28;20091;-82
2022/05/24 15:47:39;;;;;;;0.98;0.22;;;;;;;;;;4994368;28;20071;-83
2022/05/24 15:50:04;;;;;;;0.40;0.20;;;;;;;;;;5020601;28;20030;-82
2022/05/24 15:52:30;;;;;;;0.50;0.30;;;;;;;;;;4996928;28;20497;-81
2022/05/24 15:54:55;;;;;;;0.52;0.30;;;;;;;;;;4994947;28;20045;-82
2022/05/24 15:57:21;;;;;;;0.88;0.30;;;;;;;;;;5006629;28;20064;-83
2022/05/24 15:59:47;;;;;;;0.65;0.35;;;;;;;;;;4994530;28;20083;-84
2022/05/24 16:02:12;;;;;;;0.93;0.32;;;;;;;;;;4990377;28;20523;-84
2022/05/24 16:10:06;;;;;;;0.68;0.30;;;;;;;;;;5004666;28;20041;-83